Time;durP1;ratioP1;P1;durP2;ratioP2;P2;SDS_P1;SDS_P2;PMS_P1;PMS_P2;Temp;Humidity;BMP_temperature;BMP_pressure;BME280_temperature;BME280_humidity;BME280_pressure;Samples;Min_cycle;Max_cycle;Signal;HPM_P1;HPM_P2
2022/12/02 00:00:24;;;;;;;86.22;41.53;;;;;;;4.63;100.00;102500.75;5013757;28;20037;-57
2022/12/02 00:02:50;;;;;;;85.75;41.95;;;;;;;4.64;100.00;102489.31;5013522;28;20454;-57
2022/12/02 00:05:15;;;;;;;91.38;43.20;;;;;;;4.65;100.00;102495.41;5010793;28;20121;-57
2022/12/02 00:07:48;;;;;;;101.82;44.03;;;;;;;4.65;99.75;102491.03;5010289;28;21971;-56
2022/12/02 00:10:30;;;;;;;;;;;;;;;4.74;100.00;102494.09;5015707;28;20541;-57
2022/12/02 00:13:09;;;;;;;105.68;46.28;;;;;;;4.61;99.44;102489.47;5013799;28;19928;-58
2022/12/02 00:15:41;;;;;;;100.82;45.85;;;;;;;4.54;98.77;102494.19;5012684;28;20060;-60
2022/12/02 00:18:08;;;;;;;98.32;46.35;;;;;;;4.51;98.48;102490.88;5012071;28;20489;-58
2022/12/02 00:20:34;;;;;;;93.50;44.35;;;;;;;4.48;98.04;102485.81;5012739;28;20082;-57
2022/12/02 00:22:59;;;;;;;100.53;46.05;;;;;;;4.46;97.92;102488.50;5010519;28;20029;-57
2022/12/02 00:25:24;;;;;;;98.32;45.40;;;;;;;4.46;97.86;102487.66;5014867;28;20041;-58
2022/12/02 00:27:50;;;;;;;102.55;46.45;;;;;;;4.43;98.17;102486.91;5012415;28;20022;-58
2022/12/02 00:30:16;;;;;;;98.38;45.33;;;;;;;4.44;97.98;102482.47;5011297;28;20489;-60
2022/12/02 00:32:41;;;;;;;98.82;45.15;;;;;;;4.44;97.19;102488.59;5014289;28;20091;-57
2022/12/02 00:35:06;;;;;;;100.57;45.72;;;;;;;4.39;97.50;102469.59;5014475;28;20037;-57
2022/12/02 00:37:32;;;;;;;97.80;45.85;;;;;;;4.40;97.82;102471.28;5010183;28;20037;-60
2022/12/02 00:39:57;;;;;;;95.80;46.70;;;;;;;4.38;97.71;102467.91;5011328;28;20486;-57
2022/12/02 00:42:22;;;;;;;88.00;43.90;;;;;;;4.39;97.79;102464.34;5011051;28;20033;-58
2022/12/02 00:47:31;;;;;;;82.70;43.60;;;;;;;4.28;95.79;102461.41;5011617;28;20103;-58
2022/12/02 00:49:57;;;;;;;83.93;43.20;;;;;;;4.29;96.57;102469.22;5009116;28;20033;-58
2022/12/02 00:52:22;;;;;;;89.60;43.63;;;;;;;4.30;95.95;102467.47;5008674;28;20038;-57
2022/12/02 00:54:47;;;;;;;90.38;44.33;;;;;;;4.27;96.14;102464.97;5009288;28;20397;-59
2022/12/02 00:57:12;;;;;;;89.43;43.10;;;;;;;4.26;95.76;102463.28;5014665;28;20468;-58
2022/12/02 00:59:38;;;;;;;94.28;43.75;;;;;;;4.22;96.33;102456.47;5011912;28;20024;-58
2022/12/02 01:02:03;;;;;;;91.30;43.70;;;;;;;4.19;96.38;102456.66;5015551;28;20413;-58
2022/12/02 01:04:28;;;;;;;88.47;42.78;;;;;;;4.20;96.40;102455.72;5015728;28;20076;-57
2022/12/02 01:06:54;;;;;;;80.47;40.97;;;;;;;4.13;95.63;102453.41;5008856;28;20125;-59
2022/12/02 01:09:19;;;;;;;82.30;41.92;;;;;;;4.14;95.45;102454.25;5008733;28;20170;-58
2022/12/02 01:11:44;;;;;;;77.10;39.85;;;;;;;4.10;95.34;102457.97;5008333;28;20068;-60
2022/12/02 01:14:10;;;;;;;82.20;40.92;;;;;;;4.12;95.30;102459.59;5009803;28;20385;-56
2022/12/02 01:16:35;;;;;;;80.60;39.78;;;;;;;4.08;94.46;102463.31;5018289;28;20041;-60
2022/12/02 01:19:00;;;;;;;80.85;40.60;;;;;;;4.06;94.95;102449.41;5011686;28;20124;-59
2022/12/02 01:21:25;;;;;;;78.95;40.92;;;;;;;4.02;94.13;102456.59;5009035;28;20574;-58
2022/12/02 01:23:51;;;;;;;80.82;41.17;;;;;;;4.04;95.15;102459.13;5010647;28;20102;-59
2022/12/02 01:26:16;;;;;;;83.15;40.83;;;;;;;4.01;95.65;102459.31;5009778;28;20044;-57
2022/12/02 01:28:42;;;;;;;76.85;40.63;;;;;;;4.05;95.85;102460.84;5011566;28;20199;-58
2022/12/02 01:31:07;;;;;;;79.60;41.45;;;;;;;4.06;96.14;102462.53;5012522;28;20044;-60
2022/12/02 01:33:33;;;;;;;83.78;41.15;;;;;;;4.07;95.19;102451.09;5014309;28;20034;-57
2022/12/02 01:35:58;;;;;;;85.13;41.17;;;;;;;4.07;95.47;102448.47;5010965;28;20879;-60
2022/12/02 01:38:23;;;;;;;78.60;40.03;;;;;;;4.02;95.84;102450.50;5011379;28;20084;-59
2022/12/02 01:40:49;;;;;;;84.15;41.53;;;;;;;4.03;95.95;102462.69;5009796;28;20112;-60
2022/12/02 01:43:14;;;;;;;84.82;41.47;;;;;;;4.06;96.86;102462.53;5011742;28;20107;-58
2022/12/02 01:45:39;;;;;;;84.93;40.88;;;;;;;4.07;96.27;102458.97;5010808;28;20029;-57
2022/12/02 01:48:05;;;;;;;87.25;40.33;;;;;;;4.06;95.42;102465.16;5008043;28;20665;-56
2022/12/02 01:50:31;;;;;;;85.63;41.50;;;;;;;3.99;95.92;102461.16;5011256;28;20693;-59
2022/12/02 01:52:56;;;;;;;82.38;39.40;;;;;;;3.97;96.47;102463.00;5011177;28;20509;-57
2022/12/02 01:55:23;;;;;;;82.75;40.17;;;;;;;4.00;96.11;102457.59;5008564;28;20507;-59
2022/12/02 01:57:48;;;;;;;78.70;39.55;;;;;;;3.95;96.40;102452.56;5010992;28;20476;-56
2022/12/02 02:00:15;;;;;;;87.88;40.45;;;;;;;3.93;96.38;102448.31;5010806;28;20046;-57
2022/12/02 02:02:41;;;;;;;77.95;38.85;;;;;;;3.95;95.39;102451.75;5021570;28;20037;-58
2022/12/02 02:05:11;;;;;;;77.63;38.90;;;;;;;3.95;95.29;102447.31;5014032;28;20520;-59
2022/12/02 02:07:38;;;;;;;77.70;38.95;;;;;;;3.89;95.20;102451.13;5016095;28;20048;-57
2022/12/02 02:10:05;;;;;;;76.25;39.17;;;;;;;3.82;95.63;102449.72;5020780;28;20051;-58
2022/12/02 02:12:30;;;;;;;79.05;39.17;;;;;;;3.83;94.91;102443.56;5014776;28;20087;-59
2022/12/02 02:14:56;;;;;;;76.95;39.00;;;;;;;3.81;95.23;102449.81;5021308;28;20142;-57
2022/12/02 02:17:22;;;;;;;78.82;37.58;;;;;;;3.83;95.71;102451.44;5016927;28;20068;-60
2022/12/02 02:19:47;;;;;;;76.90;38.47;;;;;;;3.79;95.72;102457.75;5012376;28;20040;-58
2022/12/02 02:22:45;;;;;;;82.68;40.05;;;;;;;3.79;95.86;102449.03;5017581;28;20048;-58
2022/12/02 02:25:14;;;;;;;77.80;38.88;;;;;;;3.80;95.76;102451.56;5018562;28;20037;-58
2022/12/02 02:27:40;;;;;;;80.38;39.35;;;;;;;3.74;94.61;102454.50;5017797;28;20055;-59
2022/12/02 02:30:06;;;;;;;79.53;37.75;;;;;;;3.66;95.93;102444.41;5013343;28;20040;-60
2022/12/02 02:32:31;;;;;;;78.90;38.22;;;;;;;3.65;96.04;102436.59;5016415;28;20056;-58
2022/12/02 02:34:57;;;;;;;79.05;38.20;;;;;;;3.67;95.47;102450.50;5019149;28;20065;-57
2022/12/02 02:37:23;;;;;;;81.88;39.22;;;;;;;3.61;95.13;102443.78;5015850;28;20474;-57
2022/12/02 02:39:49;;;;;;;80.57;38.90;;;;;;;3.62;95.41;102442.84;5013568;28;20137;-59
2022/12/02 02:42:14;;;;;;;80.82;38.85;;;;;;;3.62;95.37;102441.06;5019317;28;20452;-57
2022/12/02 02:44:40;;;;;;;80.90;39.35;;;;;;;3.57;95.79;102435.22;5020137;28;21941;-57
2022/12/02 02:47:05;;;;;;;76.78;38.15;;;;;;;3.63;95.72;102434.06;5018068;28;20033;-58
2022/12/02 02:49:30;;;;;;;76.38;38.75;;;;;;;3.60;95.20;102431.59;5017766;28;20044;-57
2022/12/02 02:51:56;;;;;;;78.00;39.05;;;;;;;3.64;94.86;102430.50;5022529;28;20033;-57
2022/12/02 02:54:21;;;;;;;73.03;36.85;;;;;;;3.63;94.46;102429.66;5015768;28;20088;-60
2022/12/02 02:56:47;;;;;;;78.95;36.72;;;;;;;3.59;93.10;102432.50;5019524;28;20129;-59
2022/12/02 02:59:14;;;;;;;76.50;36.95;;;;;;;3.53;93.41;102422.31;5022042;28;20033;-59
2022/12/02 03:01:42;;;;;;;73.97;36.85;;;;;;;3.46;92.93;102424.41;5016518;28;20026;-59
2022/12/02 03:04:11;;;;;;;76.03;36.17;;;;;;;3.43;93.12;102421.91;5022193;28;20497;-58
2022/12/02 03:06:39;;;;;;;74.88;37.03;;;;;;;3.40;93.09;102417.66;5016583;28;20944;-59
2022/12/02 03:09:07;;;;;;;72.63;37.30;;;;;;;3.43;92.81;102411.44;5021231;28;20034;-57
2022/12/02 03:11:34;;;;;;;65.80;33.97;;;;;;;3.41;93.17;102413.28;5018754;28;20428;-59
2022/12/02 03:14:00;;;;;;;63.97;33.60;;;;;;;3.41;92.76;102413.28;5024573;28;20519;-58
2022/12/02 03:16:26;;;;;;;68.97;35.53;;;;;;;3.42;93.00;102409.72;5015782;28;20099;-60
2022/12/02 03:18:54;;;;;;;65.57;34.40;;;;;;;3.40;91.64;102408.97;5023938;28;20037;-58
2022/12/02 03:21:23;;;;;;;65.68;34.60;;;;;;;3.45;90.67;102401.72;5017023;28;20033;-60
2022/12/02 03:23:51;;;;;;;67.18;35.05;;;;;;;3.34;90.70;102399.63;5016164;28;20032;-57
2022/12/02 03:26:17;;;;;;;66.50;34.53;;;;;;;3.30;91.04;102396.28;5023896;28;20060;-58
2022/12/02 03:28:43;;;;;;;68.05;34.78;;;;;;;3.38;90.39;102402.94;5021717;28;20899;-58
2022/12/02 03:31:09;;;;;;;68.32;35.20;;;;;;;3.27;90.01;102406.94;5014609;28;20033;-58
2022/12/02 03:33:35;;;;;;;68.03;34.88;;;;;;;3.25;91.13;102408.78;5023935;28;20385;-56
2022/12/02 03:36:01;;;;;;;64.88;34.55;;;;;;;3.23;90.72;102418.50;5019470;28;20026;-60
2022/12/02 03:38:26;;;;;;;63.90;34.03;;;;;;;3.24;90.67;102414.94;5021573;28;20061;-56
2022/12/02 03:40:52;;;;;;;67.35;34.17;;;;;;;3.22;91.67;102414.19;5018674;28;20103;-57
2022/12/02 03:43:18;;;;;;;62.40;33.40;;;;;;;3.23;90.71;102406.25;5021735;28;20643;-57
2022/12/02 03:45:43;;;;;;;66.50;32.70;;;;;;;3.24;88.47;102407.09;5014206;28;20060;-57
2022/12/02 03:48:11;;;;;;;62.22;32.50;;;;;;;3.17;89.00;102403.06;5014390;28;20079;-58
2022/12/02 03:50:36;;;;;;;64.38;33.92;;;;;;;3.12;90.24;102394.56;5012385;28;20041;-57
2022/12/02 03:53:02;;;;;;;65.50;33.10;;;;;;;3.11;91.09;102400.75;5022865;28;20128;-56
2022/12/02 03:55:27;;;;;;;67.32;33.83;;;;;;;3.12;90.69;102402.44;5014739;28;20060;-57
2022/12/02 03:57:53;;;;;;;67.68;34.03;;;;;;;3.12;91.10;102405.06;5012298;28;20069;-59
2022/12/02 04:00:18;;;;;;;72.50;34.20;;;;;;;3.14;91.47;102380.47;5011712;28;20068;-58
2022/12/02 04:02:44;;;;;;;67.07;33.75;;;;;;;3.13;90.71;102383.16;5012642;28;20133;-57
2022/12/02 04:05:09;;;;;;;67.88;33.22;;;;;;;3.11;91.81;102377.16;5014687;28;20040;-58
2022/12/02 04:07:34;;;;;;;67.28;34.17;;;;;;;3.13;90.94;102385.78;5016084;28;20033;-58
2022/12/02 04:09:59;;;;;;;68.93;33.90;;;;;;;3.09;90.92;102382.47;5020688;28;20056;-57
2022/12/02 04:12:25;;;;;;;70.18;34.67;;;;;;;3.06;91.07;102387.88;5012762;28;20719;-58
2022/12/02 04:14:50;;;;;;;67.40;34.40;;;;;;;3.02;91.33;102384.53;5011139;28;20037;-57
2022/12/02 04:17:15;;;;;;;69.88;33.95;;;;;;;3.04;91.95;102385.31;5011920;28;20052;-56
2022/12/02 04:19:41;;;;;;;69.65;34.65;;;;;;;3.06;91.55;102378.22;5014023;28;20041;-57
2022/12/02 04:22:06;;;;;;;65.05;34.08;;;;;;;3.03;92.18;102378.38;5011946;28;20041;-58
2022/12/02 04:24:31;;;;;;;64.57;33.17;;;;;;;3.02;92.41;102381.06;5016570;28;20146;-58
2022/12/02 04:26:57;;;;;;;70.47;34.00;;;;;;;3.03;91.66;102373.13;5013735;28;20037;-59
2022/12/02 04:29:22;;;;;;;65.18;32.80;;;;;;;2.96;91.83;102371.72;5012540;28;20053;-57
2022/12/02 04:31:47;;;;;;;64.53;31.80;;;;;;;2.96;91.79;102371.72;5013242;28;20038;-59
2022/12/02 04:34:12;;;;;;;67.38;32.17;;;;;;;3.00;91.79;102377.69;5018571;28;20052;-57
2022/12/02 04:36:38;;;;;;;63.70;32.00;;;;;;;2.94;92.22;102373.56;5020382;28;20033;-57
2022/12/02 04:39:05;;;;;;;68.55;33.10;;;;;;;2.92;92.12;102371.00;5014687;28;20040;-59
2022/12/02 04:41:30;;;;;;;62.58;29.25;;;;;;;2.94;93.14;102373.56;5018156;28;20053;-58
2022/12/02 04:43:55;;;;;;;65.75;32.45;;;;;;;2.96;91.64;102376.94;5010106;28;20033;-57
2022/12/02 04:46:21;;;;;;;66.35;31.40;;;;;;;2.88;92.46;102373.84;5013974;28;20030;-59
2022/12/02 04:48:46;;;;;;;67.63;32.42;;;;;;;2.88;92.98;102373.84;5015703;28;20107;-59
2022/12/02 04:51:11;;;;;;;65.65;30.90;;;;;;;2.95;91.96;102375.25;5020185;28;20064;-58
2022/12/02 04:53:36;;;;;;;68.03;29.77;;;;;;;2.90;91.44;102358.91;5021232;28;20128;-58
2022/12/02 04:56:02;;;;;;;63.97;30.15;;;;;;;2.88;92.46;102363.38;5012089;28;20037;-58
2022/12/02 04:58:27;;;;;;;61.90;30.67;;;;;;;2.86;91.36;102366.06;5012580;28;20041;-60
2022/12/02 05:00:53;;;;;;;63.35;30.75;;;;;;;2.87;92.17;102359.91;5014987;28;20040;-57
2022/12/02 05:03:18;;;;;;;57.75;27.13;;;;;;;2.87;91.50;102361.69;5011317;28;20843;-57
2022/12/02 05:05:43;;;;;;;60.22;27.77;;;;;;;2.83;90.98;102356.56;5009460;28;20199;-58
2022/12/02 05:08:09;;;;;;;50.63;26.13;;;;;;;2.88;89.06;102363.38;5012964;28;20105;-58
2022/12/02 05:10:34;;;;;;;47.25;24.38;;;;;;;2.85;88.90;102347.81;5010506;28;20048;-58
2022/12/02 05:13:00;;;;;;;52.60;25.95;;;;;;;2.79;89.48;102355.03;5008041;28;20037;-59
2022/12/02 05:15:25;;;;;;;50.22;25.65;;;;;;;2.81;89.87;102353.19;5011533;28;20095;-57
2022/12/02 05:17:50;;;;;;;49.80;25.70;;;;;;;2.81;90.17;102347.94;5029293;28;20553;-60
2022/12/02 05:20:16;;;;;;;54.25;26.63;;;;;;;2.82;90.14;102336.53;5017015;28;20139;-58
2022/12/02 05:22:41;;;;;;;57.95;27.35;;;;;;;2.83;90.15;102335.59;5020964;28;20037;-58
2022/12/02 05:25:06;;;;;;;54.03;26.95;;;;;;;2.83;90.21;102335.59;5018937;28;20506;-59
2022/12/02 05:27:32;;;;;;;53.65;26.90;;;;;;;2.86;90.88;102337.22;5019781;28;20037;-57
2022/12/02 05:29:57;;;;;;;56.42;27.77;;;;;;;2.88;90.83;102342.41;5021207;28;20033;-57
2022/12/02 05:32:23;;;;;;;54.20;27.02;;;;;;;2.89;90.89;102338.88;5020857;28;20043;-57
2022/12/02 05:34:48;;;;;;;56.80;28.02;;;;;;;2.92;90.38;102343.97;5021465;28;20033;-57
2022/12/02 05:37:13;;;;;;;50.47;27.10;;;;;;;2.94;90.56;102357.84;5020077;28;20490;-59
2022/12/02 05:39:39;;;;;;;55.05;27.42;;;;;;;2.90;90.11;102351.03;5027108;28;20090;-59
2022/12/02 05:42:06;;;;;;;55.22;27.73;;;;;;;2.90;89.72;102335.31;5024277;28;20049;-58
2022/12/02 05:44:33;;;;;;;54.33;27.45;;;;;;;2.87;90.35;102325.00;5021689;28;20112;-57
2022/12/02 05:47:08;;;;;;;53.83;27.80;;;;;;;2.83;90.82;102325.13;5011586;28;20096;-57
2022/12/02 05:49:34;;;;;;;48.85;24.92;;;;;;;2.92;89.64;102323.84;5010232;28;20052;-57
2022/12/02 05:52:01;;;;;;;52.72;25.77;;;;;;;2.82;90.18;102323.44;5009366;28;20026;-58
2022/12/02 05:54:28;;;;;;;53.50;26.42;;;;;;;2.82;89.81;102328.69;5009898;28;20037;-57
2022/12/02 05:56:55;;;;;;;50.83;25.33;;;;;;;2.78;89.80;102331.53;5011770;28;20044;-59
2022/12/02 05:59:22;;;;;;;48.92;23.58;;;;;;;2.80;88.98;102335.78;5012381;28;20037;-58
2022/12/02 06:01:54;;;;;;;48.75;23.73;;;;;;;2.73;89.14;102323.03;5009995;28;20033;-57
2022/12/02 06:04:37;;;;;;;48.97;23.40;;;;;;;2.76;89.66;102339.44;5019572;28;20424;-58
2022/12/02 06:07:10;;;;;;;48.75;23.63;;;;;;;2.75;89.18;102337.75;5020828;28;20038;-57
2022/12/02 06:09:36;;;;;;;48.20;24.13;;;;;;;2.76;88.98;102344.69;5017384;28;20669;-58
2022/12/02 06:12:01;;;;;;;46.25;24.05;;;;;;;2.73;89.86;102339.63;5011592;28;20033;-57
2022/12/02 06:14:35;;;;;;;48.88;24.02;;;;;;;2.70;89.92;102334.50;5011162;28;20029;-58
2022/12/02 06:17:08;;;;;;;46.60;23.40;;;;;;;2.68;90.36;102336.34;5016633;28;20570;-58
2022/12/02 06:19:48;;;;;;;47.53;23.00;;;;;;;2.73;89.79;102333.50;5015558;28;21058;-58
2022/12/02 06:22:18;;;;;;;47.05;22.73;;;;;;;2.73;89.65;102339.63;5012092;28;20056;-59
2022/12/02 06:24:44;;;;;;;50.75;23.73;;;;;;;2.67;89.62;102337.28;5008002;28;20367;-60
2022/12/02 06:27:13;;;;;;;46.45;23.15;;;;;;;2.68;88.96;102325.88;5018918;28;20072;-58
2022/12/02 06:29:46;;;;;;;47.05;23.02;;;;;;;2.76;88.73;102334.22;5007584;28;20049;-57
2022/12/02 06:32:17;;;;;;;45.92;23.23;;;;;;;2.66;89.66;102328.56;5006737;28;20506;-59
2022/12/02 06:34:42;;;;;;;45.78;22.77;;;;;;;2.69;89.29;102327.56;5014242;28;20035;-57
2022/12/02 06:37:23;;;;;;;49.03;22.67;;;;;;;2.71;89.95;102330.97;5007770;28;20038;-57
2022/12/02 06:39:54;;;;;;;47.95;23.30;;;;;;;2.75;88.88;102342.13;5013699;28;20481;-57
2022/12/02 06:42:33;;;;;;;45.17;21.90;;;;;;;2.62;89.23;102331.41;5018429;28;20034;-57
2022/12/02 06:45:28;;;;;;;49.60;23.90;;;;;;;2.73;90.55;102328.28;5010375;28;20495;-59
2022/12/02 06:48:01;;;;;;;44.95;22.55;;;;;;;2.68;90.16;102338.97;5003356;28;20083;-59
2022/12/02 06:50:26;;;;;;;45.30;24.00;;;;;;;2.66;90.79;102328.56;5011801;28;20080;-57
2022/12/02 06:53:15;;;;;;;45.88;22.60;;;;;;;2.62;90.96;102326.16;5020638;28;20669;-57
2022/12/02 06:55:42;;;;;;;45.25;22.85;;;;;;;2.65;90.46;102331.25;5010024;28;20112;-57
2022/12/02 06:58:28;;;;;;;46.13;22.35;;;;;;;2.69;90.63;102333.69;5009809;28;20030;-59
2022/12/02 07:01:18;;;;;;;46.72;23.10;;;;;;;2.72;90.35;102337.91;5006350;28;20073;-59
2022/12/02 07:03:47;;;;;;;46.50;23.40;;;;;;;2.58;90.02;102324.59;5010932;28;20029;-57
2022/12/02 07:06:18;;;;;;;47.25;22.83;;;;;;;2.63;90.65;102327.88;5007448;28;20026;-56
2022/12/02 07:08:44;;;;;;;48.45;22.40;;;;;;;2.58;91.00;102329.84;5011985;28;20468;-58
2022/12/02 07:11:21;;;;;;;47.05;22.65;;;;;;;2.65;90.50;102336.50;5010061;28;20034;-57
2022/12/02 07:13:47;;;;;;;45.92;22.45;;;;;;;2.61;90.68;102342.81;5010423;28;20037;-59
2022/12/02 07:16:35;;;;;;;44.13;21.40;;;;;;;2.62;90.71;102344.50;5012755;28;20136;-58
2022/12/02 07:19:01;;;;;;;46.00;22.35;;;;;;;2.54;90.84;102335.25;5007517;28;20084;-59
2022/12/02 07:21:26;;;;;;;46.38;22.08;;;;;;;2.57;90.35;102336.00;5017306;28;20033;-57
2022/12/02 07:23:52;;;;;;;47.97;23.48;;;;;;;2.59;91.09;102342.00;5011339;28;20056;-59
2022/12/02 07:26:18;;;;;;;49.38;23.27;;;;;;;2.60;91.24;102343.72;5011036;28;20102;-56
2022/12/02 07:28:44;;;;;;;46.15;22.98;;;;;;;2.59;90.98;102347.25;5008378;28;20034;-59
2022/12/02 07:31:12;;;;;;;45.17;22.17;;;;;;;2.61;91.16;102342.81;5012132;28;20481;-57
2022/12/02 07:33:37;;;;;;;45.97;22.55;;;;;;;2.56;91.89;102343.00;5009712;28;20029;-59
2022/12/02 07:36:03;;;;;;;43.58;21.60;;;;;;;2.56;91.86;102340.38;5011802;28;20033;-60
2022/12/02 07:38:28;;;;;;;42.42;19.48;;;;;;;2.52;91.72;102342.31;5013844;28;20036;-57
2022/12/02 07:40:54;;;;;;;44.72;20.65;;;;;;;2.53;91.74;102330.06;5009894;28;20512;-58
2022/12/02 07:43:19;;;;;;;41.20;19.38;;;;;;;2.63;90.63;102333.09;5009177;28;20025;-58
2022/12/02 07:45:44;;;;;;;45.20;22.57;;;;;;;2.47;91.79;102333.81;5011903;28;20041;-58
2022/12/02 07:48:09;;;;;;;42.58;20.45;;;;;;;2.50;91.83;102333.69;5012972;28;20030;-58
2022/12/02 07:50:35;;;;;;;43.20;20.63;;;;;;;2.55;91.21;102334.31;5013592;28;20461;-57
2022/12/02 07:53:00;;;;;;;41.90;20.50;;;;;;;2.55;91.06;102331.69;5012465;28;20033;-56
2022/12/02 07:55:25;;;;;;;39.45;19.38;;;;;;;2.58;90.58;102329.84;5011799;28;20029;-57
2022/12/02 07:57:51;;;;;;;38.95;20.17;;;;;;;2.53;90.75;102327.44;5009396;28;20480;-57
2022/12/02 08:00:17;;;;;;;39.75;19.70;;;;;;;2.60;89.83;102333.22;5014408;28;20050;-56
2022/12/02 08:02:42;;;;;;;39.08;19.52;;;;;;;2.57;90.73;102338.63;5010327;28;20041;-61
2022/12/02 08:05:07;;;;;;;41.45;18.73;;;;;;;2.60;90.31;102338.47;5023184;28;20488;-59
2022/12/02 08:07:33;;;;;;;41.63;20.08;;;;;;;2.55;90.94;102336.06;5017442;28;20094;-58
2022/12/02 08:09:58;;;;;;;41.63;19.65;;;;;;;2.64;90.16;102350.50;5023167;28;20091;-57
2022/12/02 08:12:23;;;;;;;42.70;19.73;;;;;;;2.59;90.56;102347.25;5022655;28;20025;-59
2022/12/02 08:14:48;;;;;;;42.85;20.92;;;;;;;2.52;91.23;102352.78;5018501;28;20034;-60
2022/12/02 08:17:14;;;;;;;42.28;21.08;;;;;;;2.52;91.26;102346.72;5013754;28;20033;-57
2022/12/02 08:19:40;;;;;;;40.72;20.90;;;;;;;2.53;90.66;102338.75;5010320;28;20129;-58
2022/12/02 08:22:06;;;;;;;43.35;21.60;;;;;;;2.47;91.50;102344.28;5016641;28;20033;-60
2022/12/02 08:24:31;;;;;;;45.30;22.45;;;;;;;2.49;91.73;102342.47;5019584;28;20045;-57
2022/12/02 08:26:56;;;;;;;45.65;22.60;;;;;;;2.51;92.25;102338.00;5019708;28;20033;-58
2022/12/02 08:29:21;;;;;;;45.50;21.38;;;;;;;2.48;92.59;102335.53;5030039;28;20068;-56
2022/12/02 08:31:47;;;;;;;45.35;21.98;;;;;;;2.52;93.17;102333.63;5021450;28;20501;-57
2022/12/02 08:34:12;;;;;;;44.45;20.55;;;;;;;2.57;93.18;102330.78;5019559;28;20074;-57
2022/12/02 08:36:37;;;;;;;45.45;22.25;;;;;;;2.54;93.58;102335.25;5019574;28;20041;-56
2022/12/02 08:39:04;;;;;;;47.53;23.25;;;;;;;2.51;93.96;102329.31;5022719;28;20462;-56
2022/12/02 08:41:31;;;;;;;46.83;22.70;;;;;;;2.51;94.31;102324.06;5018340;28;20474;-60
2022/12/02 08:43:58;;;;;;;48.28;22.83;;;;;;;2.57;94.36;102336.00;5017742;28;20049;-59
2022/12/02 08:46:23;;;;;;;47.03;22.95;;;;;;;2.52;94.57;102331.81;5018427;28;20038;-55
2022/12/02 08:48:49;;;;;;;51.08;24.83;;;;;;;2.46;94.79;102334.72;5010046;28;20033;-57
2022/12/02 08:51:14;;;;;;;48.95;25.02;;;;;;;2.43;95.54;102340.13;5016086;28;20060;-60
2022/12/02 08:53:39;;;;;;;47.90;23.73;;;;;;;2.43;95.40;102332.28;5009490;28;20033;-58
2022/12/02 08:56:05;;;;;;;48.95;23.63;;;;;;;2.50;94.66;102344.16;5020632;28;20033;-59
2022/12/02 08:58:30;;;;;;;51.00;24.17;;;;;;;2.45;95.63;102329.56;5021205;28;20122;-59
2022/12/02 09:00:55;;;;;;;50.33;24.65;;;;;;;2.49;96.12;102329.38;5018676;28;20029;-60
2022/12/02 09:03:20;;;;;;;44.85;22.38;;;;;;;2.58;95.12;102329.84;5018819;28;20566;-57
2022/12/02 09:05:46;;;;;;;53.40;23.50;;;;;;;2.52;95.40;102337.06;5025030;28;20045;-56
2022/12/02 09:08:11;;;;;;;43.22;22.23;;;;;;;2.51;94.92;102324.91;5016707;28;20061;-59
2022/12/02 09:10:37;;;;;;;45.78;22.30;;;;;;;2.58;94.64;102335.09;5022064;28;20037;-55
2022/12/02 09:13:02;;;;;;;40.53;20.83;;;;;;;2.48;95.52;102330.28;5024204;28;20029;-56
2022/12/02 09:15:27;;;;;;;45.28;22.25;;;;;;;2.47;95.82;102333.81;5015873;28;20068;-57
2022/12/02 09:17:53;;;;;;;40.10;20.83;;;;;;;2.51;96.51;102339.78;5015595;28;20104;-59
2022/12/02 09:20:18;;;;;;;40.50;20.17;;;;;;;2.50;96.13;102333.69;5018152;28;20060;-58
2022/12/02 09:22:47;;;;;;;45.83;20.90;;;;;;;2.49;96.25;102332.00;5018122;28;20030;-57
2022/12/02 09:25:13;;;;;;;49.15;21.00;;;;;;;2.45;96.64;102335.66;5010463;28;20113;-57
2022/12/02 09:27:39;;;;;;;35.25;17.98;;;;;;;2.45;97.02;102335.66;5018612;28;20503;-57
2022/12/02 09:30:05;;;;;;;36.75;17.50;;;;;;;2.39;97.18;102330.72;5016154;28;20139;-58
2022/12/02 09:32:31;;;;;;;32.55;16.13;;;;;;;2.44;96.35;102333.97;5019558;28;20394;-59
2022/12/02 09:34:56;;;;;;;35.47;17.35;;;;;;;2.42;97.12;102326.16;5011848;28;20036;-59
2022/12/02 09:37:21;;;;;;;34.97;17.55;;;;;;;2.35;97.34;102334.38;5019926;28;20029;-58
2022/12/02 09:39:47;;;;;;;34.20;17.50;;;;;;;2.29;98.78;102328.50;5013336;28;20044;-58
2022/12/02 09:42:13;;;;;;;37.05;18.30;;;;;;;2.35;98.80;102319.53;5019274;28;20049;-56
2022/12/02 09:44:39;;;;;;;37.42;17.73;;;;;;;2.36;99.58;102320.38;5019971;28;20479;-57
2022/12/02 09:47:05;;;;;;;36.70;18.15;;;;;;;2.40;98.98;102321.94;5018617;28;20029;-57
2022/12/02 09:49:31;;;;;;;38.70;17.95;;;;;;;2.39;99.57;102315.00;5017697;28;20045;-56
2022/12/02 09:52:00;;;;;;;38.88;19.25;;;;;;;2.38;100.00;102308.91;5018627;28;20480;-57
2022/12/02 09:54:26;;;;;;;35.60;18.85;;;;;;;2.34;100.00;102309.13;5011967;28;20159;-56
2022/12/02 09:56:51;;;;;;;40.75;19.33;;;;;;;2.37;100.00;102311.59;5020479;28;20532;-59
2022/12/02 09:59:17;;;;;;;35.88;18.20;;;;;;;2.41;100.00;102307.91;5020904;28;20045;-59
2022/12/02 10:01:45;;;;;;;37.97;18.75;;;;;;;2.42;100.00;102314.88;5023909;28;20016;-58
2022/12/02 10:04:14;;;;;;;41.65;18.92;;;;;;;2.44;100.00;102313.00;5026582;28;20604;-59
2022/12/02 10:06:40;;;;;;;35.00;18.15;;;;;;;2.42;100.00;102307.84;5017984;28;20095;-61
2022/12/02 10:09:06;;;;;;;41.58;18.95;;;;;;;2.38;100.00;102310.69;5030328;28;20463;-56
2022/12/02 10:11:32;;;;;;;37.67;18.15;;;;;;;2.41;100.00;102313.16;5016023;28;20125;-61
2022/12/02 10:13:58;;;;;;;37.97;18.35;;;;;;;2.33;100.00;102307.44;5005317;28;20034;-58
2022/12/02 10:16:27;;;;;;;39.38;18.52;;;;;;;2.35;100.00;102310.81;5017108;28;20083;-57
2022/12/02 10:18:58;;;;;;;40.92;19.65;;;;;;;2.31;100.00;102311.91;5018127;28;20084;-57
2022/12/02 10:21:24;;;;;;;43.88;19.23;;;;;;;2.33;100.00;102305.66;5006332;28;20514;-57
2022/12/02 10:23:58;;;;;;;41.08;19.25;;;;;;;2.34;100.00;102309.97;5021868;28;20055;-59
2022/12/02 10:26:24;;;;;;;39.58;19.35;;;;;;;2.37;100.00;102309.00;5031847;28;20072;-59
2022/12/02 10:29:05;;;;;;;43.63;19.60;;;;;;;2.52;100.00;102305.63;5009489;28;20037;-57
2022/12/02 10:31:31;;;;;;;43.63;19.73;;;;;;;2.45;100.00;102306.00;5015494;28;20059;-58
2022/12/02 10:33:59;;;;;;;50.70;20.65;;;;;;;2.44;100.00;102302.53;5018085;28;20485;-58
2022/12/02 10:36:54;;;;;;;46.50;20.90;;;;;;;2.51;100.00;102303.13;5022995;28;20056;-60
2022/12/02 10:39:20;;;;;;;46.40;21.75;;;;;;;2.38;100.00;102297.59;5006457;28;20135;-57
2022/12/02 10:41:46;;;;;;;51.13;21.83;;;;;;;2.35;100.00;102293.34;5018503;28;20507;-59
2022/12/02 10:44:18;;;;;;;51.30;22.33;;;;;;;2.36;100.00;102283.75;5010518;28;20036;-58
2022/12/02 10:46:44;;;;;;;53.90;23.17;;;;;;;2.35;100.00;102292.47;5011947;28;20037;-60
2022/12/02 10:49:28;;;;;;;52.53;22.00;;;;;;;2.34;100.00;102288.19;5018832;28;20037;-61
2022/12/02 10:51:54;;;;;;;;;;;;;;;2.51;100.00;102283.00;5012593;28;20087;-57
2022/12/02 10:54:24;;;;;;;56.10;23.00;;;;;;;2.36;100.00;102279.34;5010306;28;19921;-58
2022/12/02 10:56:49;;;;;;;59.07;23.10;;;;;;;2.36;100.00;102283.75;5011893;28;20504;-57
2022/12/02 10:59:15;;;;;;;57.53;23.15;;;;;;;2.40;100.00;102280.03;5008398;28;20034;-58
2022/12/02 11:01:42;;;;;;;58.13;24.30;;;;;;;2.43;100.00;102287.75;5008323;28;20118;-59
2022/12/02 11:04:11;;;;;;;62.72;24.65;;;;;;;2.48;100.00;102277.06;5007637;28;20092;-58
2022/12/02 11:06:37;;;;;;;56.42;23.95;;;;;;;2.42;100.00;102280.81;5008641;28;20033;-60
2022/12/02 11:09:02;;;;;;;59.28;24.55;;;;;;;2.45;100.00;102275.44;5021169;28;20043;-60
2022/12/02 11:11:28;;;;;;;58.38;24.05;;;;;;;2.50;100.00;102270.84;5011925;28;20401;-59
2022/12/02 11:13:57;;;;;;;62.90;24.63;;;;;;;2.55;100.00;102274.09;5021849;28;20996;-57
2022/12/02 11:16:25;;;;;;;57.75;24.60;;;;;;;2.54;100.00;102267.16;5019085;28;20053;-58
2022/12/02 11:18:56;;;;;;;62.78;25.15;;;;;;;2.50;100.00;102260.34;5023816;28;20071;-57